Time;durP1;ratioP1;P1;durP2;ratioP2;P2;SDS_P1;SDS_P2;PMS_P1;PMS_P2;Temp;Humidity;BMP_temperature;BMP_pressure;BME280_temperature;BME280_humidity;BME280_pressure;Samples;Min_cycle;Max_cycle;Signal;HPM_P1;HPM_P2
2023/08/07 00:00:16;;;;;;;9.48;0.77;;;;;;;22.73;48.37;98590.03;5028769;28;20040;-73
2023/08/07 00:02:42;;;;;;;0.82;0.70;;;;;;;23.05;47.76;98594.25;5013411;28;20033;-73
2023/08/07 00:05:08;;;;;;;1.95;0.80;;;;;;;23.04;47.55;98586.91;5013132;28;20030;-73
2023/08/07 00:07:34;;;;;;;0.50;0.40;;;;;;;23.22;46.86;98600.75;5027808;28;20030;-73
2023/08/07 00:10:01;;;;;;;0.60;0.47;;;;;;;22.74;47.45;98590.81;5022851;28;20029;-73
2023/08/07 00:12:27;;;;;;;2.95;0.50;;;;;;;22.68;47.65;98587.69;5029758;28;20476;-73
2023/08/07 00:14:52;;;;;;;2.25;0.50;;;;;;;22.76;47.74;98591.22;5017616;28;20079;-73
2023/08/07 00:17:18;;;;;;;1.33;0.70;;;;;;;23.07;47.08;98599.47;5030060;28;20466;-73
2023/08/07 00:19:43;;;;;;;0.98;0.60;;;;;;;23.27;46.79;98608.00;5029946;28;20634;-73
2023/08/07 00:22:09;;;;;;;1.15;0.82;;;;;;;23.30;46.64;98612.03;5031142;28;20033;-73
2023/08/07 00:24:35;;;;;;;4.78;1.30;;;;;;;23.05;47.61;98614.19;5029243;28;20523;-73
2023/08/07 00:27:00;;;;;;;4.78;2.50;;;;;;;23.14;47.21;98610.72;5020483;28;20416;-73
2023/08/07 00:29:26;;;;;;;2.92;1.10;;;;;;;22.71;48.37;98604.72;5029410;28;20025;-73
2023/08/07 00:31:51;;;;;;;4.40;0.82;;;;;;;22.56;48.79;98611.97;5025652;28;20021;-72
2023/08/07 00:34:17;;;;;;;1.25;0.65;;;;;;;22.69;48.32;98614.97;5028366;28;20029;-73
2023/08/07 00:36:42;;;;;;;2.80;1.02;;;;;;;22.64;48.70;98621.16;5030311;28;20094;-73
2023/08/07 00:39:08;;;;;;;0.65;0.55;;;;;;;22.71;48.42;98615.31;5027980;28;20389;-73
2023/08/07 00:41:34;;;;;;;1.33;0.70;;;;;;;22.52;49.00;98612.03;5020073;28;20053;-73
2023/08/07 00:43:59;;;;;;;0.95;0.55;;;;;;;22.37;49.53;98622.88;5026287;28;20033;-73
2023/08/07 00:46:27;;;;;;;1.23;0.70;;;;;;;22.22;49.60;98610.97;5030298;28;20488;-73
2023/08/07 00:48:53;;;;;;;0.80;0.63;;;;;;;22.23;49.83;98623.97;5010963;28;20030;-73
2023/08/07 00:51:20;;;;;;;1.05;0.60;;;;;;;22.23;50.04;98620.28;5025686;28;20060;-73
2023/08/07 00:53:48;;;;;;;0.77;0.60;;;;;;;21.89;50.77;98633.50;5029338;28;20064;-73
2023/08/07 00:56:14;;;;;;;1.80;0.75;;;;;;;21.46;52.24;98635.78;5028719;28;20029;-73
2023/08/07 00:58:39;;;;;;;1.85;0.70;;;;;;;21.12;53.69;98636.69;5017194;28;20029;-73
2023/08/07 01:01:05;;;;;;;1.88;1.20;;;;;;;20.89;54.43;98621.16;5025383;28;20041;-73
2023/08/07 01:03:31;;;;;;;1.00;0.93;;;;;;;20.87;54.66;98619.97;5029258;28;20064;-73
2023/08/07 01:05:56;;;;;;;1.33;1.00;;;;;;;20.77;54.66;98624.56;5029569;28;20125;-73
2023/08/07 01:08:26;;;;;;;1.77;1.00;;;;;;;20.67;55.48;98631.97;5029574;28;20488;-73
2023/08/07 01:11:19;;;;;;;2.53;1.10;;;;;;;20.74;55.24;98629.03;5018462;28;20034;-73
2023/08/07 01:13:52;;;;;;;1.00;1.00;;;;;;;20.74;55.13;98643.25;5012114;28;20061;-73
2023/08/07 01:16:26;;;;;;;1.70;1.27;;;;;;;20.61;55.27;98639.34;5013706;28;20037;-73
2023/08/07 01:18:54;;;;;;;1.27;1.17;;;;;;;20.62;55.48;98641.75;5011842;28;20113;-72
2023/08/07 01:21:21;;;;;;;1.45;1.35;;;;;;;20.62;55.50;98658.78;5011973;28;20036;-73
2023/08/07 01:23:49;;;;;;;1.63;1.38;;;;;;;20.52;56.13;98653.25;5015344;28;20035;-73
2023/08/07 01:26:18;;;;;;;1.20;1.10;;;;;;;20.50;56.25;98650.81;5030295;28;20048;-73
2023/08/07 01:29:12;;;;;;;1.20;1.10;;;;;;;20.46;56.42;98648.03;5030088;28;20029;-73
2023/08/07 01:31:41;;;;;;;4.28;1.38;;;;;;;20.35;56.72;98638.84;5026937;28;20553;-73
2023/08/07 01:34:09;;;;;;;3.28;1.35;;;;;;;20.28;57.19;98639.72;5024490;28;20548;-73
2023/08/07 01:36:37;;;;;;;2.72;1.23;;;;;;;20.36;56.85;98648.13;5029651;28;20037;-73
2023/08/07 01:39:05;;;;;;;1.98;1.48;;;;;;;20.40;56.85;98651.75;5012457;28;20087;-73
2023/08/07 01:41:31;;;;;;;1.77;1.50;;;;;;;20.32;57.41;98668.03;5043764;28;20111;-72
2023/08/07 01:43:57;;;;;;;1.58;1.38;;;;;;;20.28;57.60;98662.44;5028750;28;20037;-73
2023/08/07 01:46:22;;;;;;;1.42;1.33;;;;;;;20.45;56.94;98659.81;5031378;28;20470;-74
2023/08/07 01:48:48;;;;;;;1.50;1.33;;;;;;;20.27;57.44;98672.19;5031847;28;20029;-73
2023/08/07 01:51:13;;;;;;;6.25;2.00;;;;;;;20.30;57.19;98668.50;5033531;28;20025;-73
2023/08/07 01:53:39;;;;;;;1.80;1.70;;;;;;;20.46;57.20;98672.78;5033721;28;20511;-73
2023/08/07 01:56:04;;;;;;;2.10;1.83;;;;;;;20.37;57.29;98669.63;5032439;28;20529;-73
2023/08/07 01:58:30;;;;;;;1.75;1.65;;;;;;;20.33;57.71;98673.31;5048711;28;20057;-73
2023/08/07 02:00:55;;;;;;;2.95;2.22;;;;;;;20.20;58.50;98689.25;5030758;28;20028;-73
2023/08/07 02:03:21;;;;;;;2.20;2.00;;;;;;;19.95;59.06;98678.94;5031569;28;20095;-73
2023/08/07 02:05:46;;;;;;;2.85;2.10;;;;;;;19.96;59.36;98686.22;5020826;28;20032;-73
2023/08/07 02:08:12;;;;;;;2.50;2.30;;;;;;;19.94;59.69;98697.19;5028621;28;20029;-73
2023/08/07 02:10:38;;;;;;;5.35;2.78;;;;;;;19.91;59.75;98693.13;5030388;28;20028;-73
2023/08/07 02:13:04;;;;;;;2.58;2.38;;;;;;;19.82;60.33;98692.00;5030705;28;20029;-73
2023/08/07 02:15:29;;;;;;;2.33;2.13;;;;;;;19.75;60.57;98690.81;5033247;28;20020;-73
2023/08/07 02:17:55;;;;;;;2.95;2.75;;;;;;;19.70;60.91;98685.59;5033372;28;20036;-73
2023/08/07 02:20:20;;;;;;;2.60;2.33;;;;;;;19.75;60.83;98682.31;5032382;28;20022;-73
2023/08/07 02:22:46;;;;;;;2.75;2.55;;;;;;;19.73;61.10;98690.44;5031404;28;20032;-73
2023/08/07 02:25:11;;;;;;;2.15;2.05;;;;;;;19.58;61.41;98683.25;5033118;28;20037;-72
2023/08/07 02:27:36;;;;;;;2.70;2.50;;;;;;;19.61;61.18;98673.91;5032776;28;20028;-73
2023/08/07 02:30:03;;;;;;;2.92;2.13;;;;;;;19.71;60.87;98692.06;5019811;28;20551;-73
2023/08/07 02:32:29;;;;;;;2.80;2.40;;;;;;;19.78;60.56;98692.81;5027861;28;20026;-73
2023/08/07 02:34:55;;;;;;;2.70;2.50;;;;;;;19.66;60.92;98695.34;5048158;28;20036;-73
2023/08/07 02:37:20;;;;;;;2.63;2.42;;;;;;;19.67;60.87;98700.63;5032409;28;20022;-73
2023/08/07 02:39:46;;;;;;;2.90;2.63;;;;;;;19.66;61.06;98703.84;5026367;28;20052;-73
2023/08/07 02:42:12;;;;;;;2.65;2.30;;;;;;;19.72;60.66;98708.69;5032744;28;20056;-73
2023/08/07 02:44:37;;;;;;;2.13;1.90;;;;;;;19.68;60.45;98710.75;5031300;28;20026;-73
2023/08/07 02:47:03;;;;;;;8.13;2.83;;;;;;;19.72;60.24;98708.69;5017669;28;20156;-73
2023/08/07 02:49:28;;;;;;;2.83;2.25;;;;;;;19.76;60.22;98708.66;5033062;28;20505;-73
2023/08/07 02:51:54;;;;;;;3.20;2.35;;;;;;;19.78;60.37;98723.22;5017884;28;20049;-73
2023/08/07 02:54:19;;;;;;;2.17;1.98;;;;;;;19.76;60.22;98712.28;5047569;28;20615;-73
2023/08/07 02:56:45;;;;;;;3.60;1.90;;;;;;;19.71;60.73;98718.41;5030527;28;20527;-73
2023/08/07 02:59:10;;;;;;;2.17;2.00;;;;;;;19.95;60.21;98724.34;5030635;28;20405;-73
2023/08/07 03:01:35;;;;;;;2.60;1.80;;;;;;;19.94;60.52;98734.09;5044719;28;20029;-73
2023/08/07 03:04:01;;;;;;;6.93;2.10;;;;;;;19.87;60.82;98726.41;5031903;28;20077;-73
2023/08/07 03:06:26;;;;;;;3.00;2.45;;;;;;;19.75;61.39;98727.69;5029562;28;20498;-73
2023/08/07 03:08:52;;;;;;;4.05;1.90;;;;;;;19.82;61.19;98731.72;5026064;28;20455;-73
2023/08/07 03:11:17;;;;;;;4.78;1.80;;;;;;;20.09;60.24;98736.81;5029546;28;20026;-78
2023/08/07 03:13:44;;;;;;;5.97;2.38;;;;;;;20.06;60.13;98739.25;5023979;28;20055;-77
2023/08/07 03:16:09;;;;;;;3.88;2.10;;;;;;;20.06;59.85;98733.59;5025770;28;20033;-77
2023/08/07 03:18:35;;;;;;;3.40;2.28;;;;;;;20.34;59.33;98748.75;5030228;28;20032;-77
2023/08/07 03:21:01;;;;;;;3.22;1.88;;;;;;;20.46;59.63;98738.91;5030703;28;20030;-76
2023/08/07 03:23:28;;;;;;;1.83;1.73;;;;;;;20.42;59.65;98740.19;5019465;28;20411;-75
2023/08/07 03:26:08;;;;;;;1.60;1.50;;;;;;;20.62;58.75;98740.38;5024075;28;20021;-75
2023/08/07 03:28:34;;;;;;;4.97;1.67;;;;;;;20.62;58.26;98746.06;5032174;28;20026;-75
2023/08/07 03:31:00;;;;;;;2.67;1.52;;;;;;;20.28;59.55;98749.63;5029684;28;20037;-75
2023/08/07 03:33:26;;;;;;;6.13;1.50;;;;;;;20.43;59.13;98753.16;5030613;28;20049;-77
2023/08/07 03:35:52;;;;;;;9.25;1.40;;;;;;;20.40;59.16;98762.50;5030300;28;20032;-79
2023/08/07 03:38:18;;;;;;;3.88;1.67;;;;;;;20.52;58.79;98762.00;5032109;28;20428;-80
2023/08/07 03:40:43;;;;;;;2.45;1.48;;;;;;;20.69;57.98;98754.50;5031789;28;20046;-80
2023/08/07 03:43:09;;;;;;;4.10;1.48;;;;;;;20.69;58.10;98765.06;5028728;28;20025;-80
2023/08/07 03:45:34;;;;;;;6.75;1.50;;;;;;;20.55;58.67;98761.16;5030391;28;20044;-80
2023/08/07 03:48:00;;;;;;;4.82;1.63;;;;;;;20.73;58.67;98760.16;5031315;28;20029;-80
2023/08/07 03:50:25;;;;;;;5.57;1.80;;;;;;;20.21;60.46;98759.00;5031790;28;20030;-80
2023/08/07 03:52:51;;;;;;;1.73;1.35;;;;;;;20.47;59.14;98751.06;5031820;28;20111;-80
2023/08/07 03:55:16;;;;;;;2.15;1.33;;;;;;;20.62;58.95;98754.59;5028041;28;20057;-72
2023/08/07 03:57:41;;;;;;;4.28;1.42;;;;;;;20.61;59.19;98759.44;5046845;28;20022;-73
2023/08/07 04:00:08;;;;;;;15.98;2.33;;;;;;;20.74;58.92;98762.56;5031429;28;20021;-75
2023/08/07 04:02:33;;;;;;;5.28;2.30;;;;;;;20.72;58.79;98765.03;5029991;28;20040;-81
2023/08/07 04:04:58;;;;;;;6.72;1.50;;;;;;;20.45;59.49;98765.72;5030927;28;20025;-81
2023/08/07 04:07:24;;;;;;;3.50;1.55;;;;;;;20.19;59.96;98764.31;5024330;28;20025;-81
2023/08/07 04:09:49;;;;;;;3.45;1.65;;;;;;;20.32;59.49;98764.59;5023057;28;20022;-81
2023/08/07 04:12:15;;;;;;;5.32;1.80;;;;;;;20.17;60.36;98770.38;5026841;28;20029;-81
2023/08/07 04:14:40;;;;;;;5.65;2.03;;;;;;;20.18;59.67;98762.69;5035124;28;20031;-80
2023/08/07 04:17:06;;;;;;;2.38;1.80;;;;;;;20.13;59.81;98777.31;5030978;28;20033;-81
2023/08/07 04:19:32;;;;;;;1.92;1.60;;;;;;;20.18;59.63;98774.84;5029940;28;20087;-81
2023/08/07 04:21:58;;;;;;;5.70;1.90;;;;;;;20.23;59.62;98790.63;5040542;28;20029;-81
2023/08/07 04:24:23;;;;;;;4.43;2.00;;;;;;;20.22;59.67;98779.69;5013090;28;20026;-80
2023/08/07 04:26:49;;;;;;;5.25;2.13;;;;;;;20.34;59.63;98788.50;5010129;28;20029;-81
2023/08/07 04:29:14;;;;;;;1.50;1.40;;;;;;;20.66;58.61;98797.97;5022063;28;20027;-81
2023/08/07 04:31:39;;;;;;;3.92;1.63;;;;;;;20.74;57.82;98796.66;5031323;28;20052;-78
2023/08/07 04:34:05;;;;;;;1.85;1.50;;;;;;;20.78;58.14;98790.97;5030985;28;20037;-75
2023/08/07 04:36:30;;;;;;;1.23;1.10;;;;;;;20.95;57.91;98792.03;5029040;28;20079;-78
2023/08/07 04:38:56;;;;;;;2.33;1.52;;;;;;;21.27;57.12;98792.88;5030623;28;20032;-78
2023/08/07 04:41:22;;;;;;;2.65;1.50;;;;;;;21.15;56.84;98786.53;5036295;28;20132;-79
2023/08/07 04:43:48;;;;;;;8.38;2.42;;;;;;;21.05;56.97;98793.13;5021852;28;20392;-78
2023/08/07 04:46:14;;;;;;;5.40;2.65;;;;;;;21.05;57.71;98787.44;5029791;28;20017;-77
2023/08/07 04:48:40;;;;;;;2.03;1.50;;;;;;;21.33;56.72;98794.03;5009873;28;20710;-78
2023/08/07 04:51:05;;;;;;;4.80;2.22;;;;;;;21.59;56.33;98797.34;5011312;28;20109;-78
2023/08/07 04:53:31;;;;;;;2.83;1.80;;;;;;;21.56;56.55;98798.19;5011395;28;20121;-78
2023/08/07 04:55:56;;;;;;;6.25;2.17;;;;;;;21.80;56.09;98799.13;5011490;28;20029;-78
2023/08/07 04:58:22;;;;;;;3.70;1.52;;;;;;;22.02;55.25;98801.66;5010072;28;20493;-78
2023/08/07 05:00:47;;;;;;;2.35;1.70;;;;;;;22.12;54.76;98817.75;5011312;28;20026;-78
2023/08/07 05:03:15;;;;;;;3.10;1.85;;;;;;;21.98;55.28;98809.44;5012040;28;20026;-78
2023/08/07 05:05:40;;;;;;;3.95;2.00;;;;;;;21.73;55.73;98805.75;5029924;28;20033;-78
2023/08/07 05:08:06;;;;;;;10.23;2.05;;;;;;;21.50;55.73;98808.47;5029934;28;20091;-78
2023/08/07 05:10:31;;;;;;;2.55;1.85;;;;;;;21.29;56.48;98811.13;5030998;28;20412;-78
2023/08/07 05:12:57;;;;;;;5.60;2.08;;;;;;;21.24;56.31;98807.97;5030925;28;20095;-78
2023/08/07 05:15:23;;;;;;;7.45;2.53;;;;;;;21.27;56.08;98807.09;5029644;28;20028;-78
2023/08/07 05:17:50;;;;;;;13.30;2.40;;;;;;;21.24;56.07;98807.97;5030739;28;20108;-78
2023/08/07 05:20:15;;;;;;;4.53;2.28;;;;;;;21.36;55.79;98806.59;5040766;28;20529;-80
2023/08/07 05:22:41;;;;;;;5.35;2.40;;;;;;;21.39;55.69;98794.34;5027132;28;20049;-76
2023/08/07 05:25:09;;;;;;;6.00;3.13;;;;;;;21.50;55.55;98803.56;5026496;28;20033;-76
2023/08/07 05:27:34;;;;;;;4.22;2.50;;;;;;;21.62;55.29;98805.03;5032077;28;20026;-77
2023/08/07 05:30:00;;;;;;;2.92;2.63;;;;;;;21.77;54.58;98799.19;5032897;28;20143;-76
2023/08/07 05:32:25;;;;;;;4.35;2.33;;;;;;;21.80;54.76;98819.06;5019953;28;20034;-77
2023/08/07 05:34:51;;;;;;;5.90;2.50;;;;;;;21.99;53.82;98823.25;5018414;28;20021;-77
2023/08/07 05:37:16;;;;;;;2.35;2.15;;;;;;;22.08;53.05;98816.19;5033101;28;20029;-77
2023/08/07 05:39:42;;;;;;;7.63;2.20;;;;;;;22.06;53.79;98819.50;5033614;28;20033;-77
2023/08/07 05:42:09;;;;;;;5.18;2.20;;;;;;;22.26;53.04;98822.44;5033915;28;20302;-78
2023/08/07 05:44:35;;;;;;;3.22;2.47;;;;;;;22.52;52.00;98828.56;5032696;28;20049;-76
2023/08/07 05:47:00;;;;;;;9.00;2.65;;;;;;;22.60;51.25;98822.75;5042225;28;20551;-78
2023/08/07 05:49:26;;;;;;;7.53;3.58;;;;;;;22.71;51.94;98821.31;5031057;28;20456;-77
2023/08/07 05:51:51;;;;;;;12.00;2.92;;;;;;;22.78;51.16;98828.94;5033722;28;20099;-78
2023/08/07 05:54:17;;;;;;;2.13;1.75;;;;;;;22.57;50.77;98818.72;5032680;28;20022;-78
2023/08/07 05:56:43;;;;;;;5.35;2.67;;;;;;;22.68;51.04;98807.13;5033752;28;20111;-78
2023/08/07 05:59:08;;;;;;;7.03;2.92;;;;;;;22.86;50.76;98819.03;5033735;28;20408;-78
2023/08/07 06:01:33;;;;;;;14.82;3.03;;;;;;;22.83;50.79;98814.19;5033511;28;20029;-78
2023/08/07 06:04:00;;;;;;;4.47;2.00;;;;;;;22.83;50.29;98813.38;5031910;28;20488;-78
2023/08/07 06:06:27;;;;;;;3.95;2.00;;;;;;;23.00;49.92;98820.00;5031624;28;20025;-78
2023/08/07 06:08:56;;;;;;;2.03;1.90;;;;;;;22.84;50.08;98815.81;5033120;28;20045;-78
2023/08/07 06:11:22;;;;;;;2.88;2.33;;;;;;;22.97;49.94;98812.31;5032861;28;20033;-78
2023/08/07 06:13:49;;;;;;;2.85;2.10;;;;;;;22.98;49.76;98820.41;5032908;28;20060;-78
2023/08/07 06:16:14;;;;;;;9.55;2.60;;;;;;;22.91;49.85;98822.59;5032556;28;20053;-76
2023/08/07 06:18:40;;;;;;;4.47;3.13;;;;;;;22.90;49.52;98812.44;5031984;28;20396;-79
2023/08/07 06:21:06;;;;;;;2.42;2.05;;;;;;;23.04;49.33;98823.56;5033044;28;20057;-76
2023/08/07 06:23:33;;;;;;;5.90;2.17;;;;;;;23.15;49.32;98820.53;5031138;28;20108;-76
2023/08/07 06:25:59;;;;;;;5.55;2.97;;;;;;;23.18;48.84;98824.56;5031633;28;20025;-76
2023/08/07 06:28:24;;;;;;;35.38;5.15;;;;;;;23.40;48.51;98828.59;5031992;28;20701;-75
2023/08/07 06:30:49;;;;;;;2.10;1.90;;;;;;;23.17;48.87;98829.44;5032814;28;20029;-75
2023/08/07 06:33:15;;;;;;;2.38;2.08;;;;;;;23.45;48.20;98833.00;5031470;28;20112;-75
2023/08/07 06:35:42;;;;;;;12.25;2.10;;;;;;;23.33;48.38;98834.47;5032869;28;20029;-75
2023/08/07 06:38:08;;;;;;;5.20;2.38;;;;;;;23.62;48.43;98819.59;5031353;28;20025;-77
2023/08/07 06:40:35;;;;;;;2.90;2.30;;;;;;;23.70;47.47;98823.91;5032676;28;20048;-76
2023/08/07 06:43:00;;;;;;;8.10;2.42;;;;;;;23.86;47.24;98822.34;5032366;28;20057;-76
2023/08/07 06:45:26;;;;;;;4.03;1.75;;;;;;;24.05;46.97;98820.72;5032945;28;20060;-76
2023/08/07 06:47:51;;;;;;;3.47;2.20;;;;;;;24.33;46.57;98824.16;5032797;28;20024;-76
2023/08/07 06:50:17;;;;;;;2.30;2.10;;;;;;;24.04;45.83;98829.75;5031904;28;20067;-75
2023/08/07 06:52:42;;;;;;;7.15;2.38;;;;;;;23.93;47.39;98836.47;5032443;28;20543;-75
2023/08/07 06:55:08;;;;;;;2.35;2.15;;;;;;;24.04;46.81;98826.91;5032494;28;20408;-74
2023/08/07 06:57:34;;;;;;;2.88;1.95;;;;;;;24.02;46.18;98824.44;5020470;28;20033;-77
2023/08/07 06:59:59;;;;;;;3.10;1.77;;;;;;;23.88;46.93;98834.13;5018645;28;20025;-77
2023/08/07 07:02:25;;;;;;;11.00;2.47;;;;;;;24.08;45.82;98827.59;5042528;28;20040;-77
2023/08/07 07:04:50;;;;;;;1.95;1.83;;;;;;;24.30;45.40;98836.47;5024958;28;20029;-77
2023/08/07 07:07:16;;;;;;;2.33;2.10;;;;;;;24.17;45.77;98842.09;5018731;28;20022;-77
2023/08/07 07:09:41;;;;;;;2.08;1.85;;;;;;;23.91;46.23;98829.59;5016081;28;20022;-76
2023/08/07 07:12:07;;;;;;;7.10;3.13;;;;;;;24.22;46.17;98827.25;5019939;28;20026;-78
2023/08/07 07:14:36;;;;;;;3.17;2.00;;;;;;;24.61;44.43;98832.44;5016851;28;20021;-77
2023/08/07 07:17:01;;;;;;;2.00;1.88;;;;;;;24.30;44.02;98819.31;5040590;28;20025;-76
2023/08/07 07:19:27;;;;;;;7.60;2.33;;;;;;;24.59;44.50;98829.25;5019870;28;20480;-76
2023/08/07 07:21:53;;;;;;;6.70;2.33;;;;;;;24.65;44.28;98821.75;5024974;28;20562;-75
2023/08/07 07:24:18;;;;;;;4.72;1.83;;;;;;;24.66;44.06;98831.94;5018009;28;20459;-75
2023/08/07 07:26:44;;;;;;;2.58;2.38;;;;;;;24.76;43.79;98825.13;5018967;28;20058;-74
2023/08/07 07:29:09;;;;;;;5.97;1.90;;;;;;;24.35;44.72;98823.69;5017937;28;20029;-74
2023/08/07 07:31:35;;;;;;;6.97;2.38;;;;;;;24.49;44.24;98822.56;5019894;28;20518;-74
2023/08/07 07:34:01;;;;;;;1.90;1.60;;;;;;;24.99;43.23;98826.19;5012636;28;20178;-74
2023/08/07 07:36:26;;;;;;;1.88;1.77;;;;;;;25.20;42.28;98815.41;5020209;28;20455;-75
2023/08/07 07:38:51;;;;;;;3.28;1.63;;;;;;;25.10;41.53;98823.03;5016825;28;20026;-75
2023/08/07 07:41:17;;;;;;;5.32;1.67;;;;;;;25.02;41.50;98822.44;5018571;28;20053;-76
2023/08/07 07:43:43;;;;;;;2.45;1.50;;;;;;;25.31;40.44;98823.69;5043420;28;20025;-75
2023/08/07 07:46:08;;;;;;;5.13;1.70;;;;;;;25.49;39.17;98820.34;5023304;28;20037;-75
2023/08/07 07:48:34;;;;;;;4.43;1.70;;;;;;;25.69;39.40;98827.94;5015477;28;20578;-75
2023/08/07 07:51:00;;;;;;;16.98;2.05;;;;;;;25.99;38.35;98814.38;5016776;28;20018;-75
2023/08/07 07:53:26;;;;;;;1.77;1.33;;;;;;;25.82;37.47;98819.38;5019882;28;20104;-75
2023/08/07 07:55:51;;;;;;;6.57;2.05;;;;;;;25.90;37.14;98824.44;5019008;28;20155;-75
2023/08/07 07:58:16;;;;;;;8.10;1.83;;;;;;;26.13;36.78;98825.38;5019867;28;20056;-75
2023/08/07 08:00:42;;;;;;;2.40;1.38;;;;;;;25.93;37.27;98819.84;5021368;28;20037;-78
2023/08/07 08:03:08;;;;;;;1.23;1.13;;;;;;;26.05;36.17;98809.66;5021893;28;20026;-74
2023/08/07 08:05:34;;;;;;;3.45;1.60;;;;;;;26.11;36.18;98802.09;5018058;28;20769;-76
2023/08/07 08:08:01;;;;;;;2.30;1.70;;;;;;;26.34;36.15;98808.78;5040222;28;20030;-74
2023/08/07 08:10:27;;;;;;;1.50;1.40;;;;;;;26.54;35.79;98810.56;5017760;28;20526;-76
2023/08/07 08:12:54;;;;;;;5.18;1.20;;;;;;;26.62;35.25;98821.34;5022181;28;20018;-74
2023/08/07 08:15:21;;;;;;;1.05;1.00;;;;;;;26.74;35.09;98813.19;5027255;28;20092;-76
2023/08/07 08:17:46;;;;;;;7.07;1.50;;;;;;;26.92;35.59;98801.13;5027229;28;20052;-77
2023/08/07 08:20:15;;;;;;;3.95;1.25;;;;;;;26.63;34.23;98797.16;5041220;28;20076;-77
2023/08/07 08:22:40;;;;;;;2.20;1.65;;;;;;;26.81;34.83;98803.53;5016862;28;20028;-77
2023/08/07 08:25:06;;;;;;;1.48;1.08;;;;;;;26.86;34.44;98803.75;5015695;28;20420;-77
2023/08/07 08:27:32;;;;;;;7.50;1.92;;;;;;;27.16;34.22;98812.16;5023255;28;20033;-77
2023/08/07 08:29:57;;;;;;;3.03;1.20;;;;;;;27.39;33.38;98799.41;5030815;28;20033;-77
2023/08/07 08:32:23;;;;;;;5.50;1.55;;;;;;;27.54;33.17;98793.97;5029615;28;20074;-77
2023/08/07 08:34:49;;;;;;;1.35;1.25;;;;;;;27.62;33.59;98794.47;5028957;28;20029;-77
2023/08/07 08:37:15;;;;;;;2.05;1.42;;;;;;;27.27;33.70;98798.22;5028756;28;20029;-77
2023/08/07 08:39:40;;;;;;;5.20;1.13;;;;;;;27.77;33.53;98794.75;5029471;28;20454;-77
2023/08/07 08:42:11;;;;;;;4.43;1.63;;;;;;;27.53;32.38;98795.22;5029157;28;20492;-77
2023/08/07 08:44:38;;;;;;;2.10;1.40;;;;;;;27.42;32.60;98789.06;5029756;28;20090;-77
2023/08/07 08:47:06;;;;;;;3.05;2.80;;;;;;;27.31;32.70;98790.25;5028511;28;20467;-77
2023/08/07 08:49:39;;;;;;;1.00;0.90;;;;;;;27.48;31.62;98775.69;5027012;28;20025;-77
2023/08/07 08:52:06;;;;;;;2.97;1.17;;;;;;;27.60;32.22;98774.84;5020322;28;20485;-78
2023/08/07 08:54:32;;;;;;;4.95;1.08;;;;;;;27.51;31.48;98773.97;5024890;28;20022;-79
2023/08/07 08:56:59;;;;;;;1.75;1.00;;;;;;;27.71;31.48;98776.50;5041434;28;20041;-79
2023/08/07 08:59:25;;;;;;;5.90;1.38;;;;;;;28.15;31.97;98772.69;5021892;28;20024;-79
2023/08/07 09:01:52;;;;;;;1.58;0.98;;;;;;;28.10;31.01;98764.72;5019369;28;20021;-78
2023/08/07 09:04:18;;;;;;;2.13;1.50;;;;;;;27.67;31.03;98775.84;5016278;28;20025;-79
2023/08/07 09:06:45;;;;;;;2.45;1.00;;;;;;;28.39;31.01;98754.91;5039504;28;20034;-78
2023/08/07 09:09:13;;;;;;;9.15;1.75;;;;;;;28.26;30.57;98763.69;5026466;28;20021;-78
2023/08/07 09:11:41;;;;;;;4.10;1.23;;;;;;;28.60;30.29;98764.72;5032215;28;20029;-79
2023/08/07 09:14:09;;;;;;;0.73;0.73;;;;;;;28.06;30.53;98766.94;5025051;28;20010;-76
2023/08/07 09:16:36;;;;;;;3.28;1.10;;;;;;;28.64;29.60;98756.72;5020420;28;20018;-76
2023/08/07 09:19:01;;;;;;;2.88;0.90;;;;;;;28.32;29.77;98753.13;5019027;28;20032;-76
2023/08/07 09:21:27;;;;;;;4.28;1.05;;;;;;;28.12;29.58;98742.03;5047495;28;20021;-76
2023/08/07 09:23:53;;;;;;;2.40;0.77;;;;;;;28.40;28.92;98742.94;5030951;28;20029;-76
2023/08/07 09:26:26;;;;;;;4.78;1.00;;;;;;;28.85;28.72;98748.47;5013930;28;20037;-76
2023/08/07 09:28:54;;;;;;;1.30;1.05;;;;;;;28.85;29.25;98748.47;5018558;28;20107;-76
2023/08/07 09:31:26;;;;;;;3.20;1.20;;;;;;;28.89;28.98;98740.47;5017228;28;20091;-76
2023/08/07 09:33:52;;;;;;;4.70;1.00;;;;;;;28.80;29.04;98737.53;5018266;28;20563;-76
2023/08/07 09:36:17;;;;;;;2.38;0.82;;;;;;;29.35;28.33;98741.69;5021706;28;20116;-76
2023/08/07 09:38:44;;;;;;;1.50;1.20;;;;;;;29.66;28.05;98734.91;5011957;28;20065;-78
2023/08/07 09:41:10;;;;;;;1.33;0.88;;;;;;;29.99;27.81;98737.03;5018137;28;22073;-77
2023/08/07 09:43:36;;;;;;;3.72;0.90;;;;;;;29.43;26.67;98742.97;5027426;28;20101;-77
2023/08/07 09:46:06;;;;;;;0.98;0.85;;;;;;;29.51;27.21;98735.59;5048898;28;20067;-77
2023/08/07 09:48:38;;;;;;;4.43;1.20;;;;;;;29.17;27.34;98726.03;5028517;28;20056;-75
2023/08/07 09:51:04;;;;;;;1.00;0.90;;;;;;;29.09;27.14;98721.91;5017747;28;20054;-75
2023/08/07 09:53:30;;;;;;;1.30;0.77;;;;;;;29.20;27.74;98722.22;5021879;28;20065;-75
2023/08/07 09:55:56;;;;;;;2.88;1.38;;;;;;;29.79;27.58;98726.06;5020245;28;20168;-75
2023/08/07 09:58:22;;;;;;;1.13;1.02;;;;;;;30.04;27.44;98718.31;5024321;28;20100;-77
2023/08/07 10:00:48;;;;;;;0.98;0.70;;;;;;;30.59;27.89;98717.16;5038358;28;20029;-76
2023/08/07 10:03:14;;;;;;;0.80;0.80;;;;;;;30.96;27.24;98714.00;5019081;28;20146;-77
2023/08/07 10:05:42;;;;;;;5.18;1.23;;;;;;;31.03;26.42;98706.25;5016401;28;20060;-75
2023/08/07 10:08:07;;;;;;;2.80;0.93;;;;;;;31.27;25.65;98705.41;5031460;28;20025;-77
2023/08/07 10:10:36;;;;;;;1.00;0.90;;;;;;;31.50;26.29;98707.41;5033067;28;20080;-75
2023/08/07 10:13:02;;;;;;;0.98;0.88;;;;;;;30.78;27.39;98691.09;5031558;28;20500;-76
2023/08/07 10:15:31;;;;;;;3.47;1.00;;;;;;;31.14;26.23;98697.81;5032258;28;20024;-77
2023/08/07 10:17:57;;;;;;;1.58;0.80;;;;;;;31.12;26.14;98688.81;5035465;28;20033;-77
2023/08/07 10:20:26;;;;;;;2.10;1.15;;;;;;;31.32;26.76;98698.91;5017526;28;20025;-77
2023/08/07 10:22:52;;;;;;;1.55;1.33;;;;;;;31.33;26.03;98686.06;5044405;28;20507;-78
2023/08/07 10:25:21;;;;;;;2.22;1.05;;;;;;;31.49;26.01;98684.78;5030496;28;20021;-79
2023/08/07 10:27:51;;;;;;;1.35;1.23;;;;;;;31.38;25.92;98694.06;5047846;28;20443;-76
2023/08/07 10:30:18;;;;;;;1.50;1.00;;;;;;;31.30;25.74;98682.09;5028849;28;20108;-76
2023/08/07 10:32:45;;;;;;;2.00;1.00;;;;;;;30.55;27.53;98681.94;5027415;28;20021;-75
2023/08/07 10:35:29;;;;;;;1.60;1.10;;;;;;;31.37;25.54;98689.53;5031007;28;20026;-76
2023/08/07 10:37:54;;;;;;;2.78;2.00;;;;;;;31.61;26.04;98682.84;5032528;28;20259;-80
2023/08/07 10:40:23;;;;;;;1.10;0.90;;;;;;;32.21;26.85;98676.94;5032874;28;20049;-78
2023/08/07 10:42:54;;;;;;;2.00;1.30;;;;;;;32.22;24.55;98672.78;5031724;28;20036;-74
2023/08/07 10:45:22;;;;;;;1.75;1.00;;;;;;;32.44;24.90;98672.28;5031606;28;20107;-78
2023/08/07 10:48:06;;;;;;;4.72;1.40;;;;;;;32.38;23.58;98670.63;5020160;28;20030;-76
2023/08/07 10:50:33;;;;;;;1.23;0.80;;;;;;;31.57;24.45;98670.72;5032696;28;20073;-77
2023/08/07 10:53:04;;;;;;;1.73;0.90;;;;;;;32.21;24.77;98668.25;5026536;28;20171;-79
2023/08/07 10:55:46;;;;;;;4.18;2.45;;;;;;;32.19;24.74;98662.19;5034832;28;20029;-78
2023/08/07 10:58:31;;;;;;;1.33;1.02;;;;;;;32.86;24.11;98666.44;5023598;28;20021;-79
2023/08/07 11:01:22;;;;;;;7.38;2.35;;;;;;;33.13;24.70;98662.28;5040388;28;20044;-79
2023/08/07 11:04:05;;;;;;;3.13;0.80;;;;;;;32.85;24.72;98659.06;5032211;28;20415;-78
2023/08/07 11:06:35;;;;;;;1.38;0.90;;;;;;;32.79;24.79;98650.31;5020299;28;20022;-76
2023/08/07 11:09:04;;;;;;;0.80;0.80;;;;;;;32.84;23.48;98651.69;5030556;28;20104;-76
2023/08/07 11:11:42;;;;;;;1.02;0.80;;;;;;;33.21;24.19;98648.13;5036039;28;20018;-76
2023/08/07 11:14:16;;;;;;;3.55;0.90;;;;;;;33.32;24.11;98647.44;5030315;28;20037;-76
2023/08/07 11:16:42;;;;;;;1.20;0.90;;;;;;;33.13;23.57;98639.13;5030782;28;20022;-76
2023/08/07 11:19:08;;;;;;;1.15;0.80;;;;;;;33.59;23.22;98639.53;5031073;28;20029;-77
2023/08/07 11:21:34;;;;;;;1.52;1.20;;;;;;;33.97;22.82;98640.28;5032085;28;20415;-76
2023/08/07 11:24:01;;;;;;;1.23;0.80;;;;;;;34.01;22.52;98643.00;5022790;28;20116;-77
2023/08/07 11:26:27;;;;;;;2.80;1.30;;;;;;;33.90;21.47;98640.78;5017976;28;20100;-77
2023/08/07 11:28:56;;;;;;;1.05;0.95;;;;;;;34.23;21.54;98642.31;5027282;28;20061;-77
2023/08/07 11:31:27;;;;;;;0.90;0.70;;;;;;;34.00;21.24;98645.06;5021398;28;20427;-77